Time;durP1;ratioP1;P1;durP2;ratioP2;P2;SDS_P1;SDS_P2;PMS_P1;PMS_P2;Temp;Humidity;BMP_temperature;BMP_pressure;BME280_temperature;BME280_humidity;BME280_pressure;Samples;Min_cycle;Max_cycle;Signal;HPM_P1;HPM_P2
2022/01/28 00:00:03;;;;;;;7.90;7.50;;;;;;;0.16;97.26;100524.28;5006986;28;20060;-61
2022/01/28 00:04:57;;;;;;;8.50;8.00;;;;;;;0.14;97.59;100526.13;5008227;28;20087;-63
2022/01/28 00:07:22;;;;;;;8.30;7.90;;;;;;;0.15;98.02;100529.59;5009721;28;20030;-62
2022/01/28 00:09:48;;;;;;;8.63;8.13;;;;;;;0.13;97.72;100524.47;5007746;28;20061;-62
2022/01/28 00:12:14;;;;;;;8.40;7.97;;;;;;;0.17;97.62;100533.75;5007180;28;20120;-61
2022/01/28 00:15:05;;;;;;;7.80;7.40;;;;;;;0.17;96.71;100538.97;5011150;28;20463;-61
2022/01/28 00:39:37;;;;;;;7.57;7.18;;;;;;;0.26;98.10;100501.78;5006511;28;20036;-62
2022/01/28 00:42:03;;;;;;;8.68;8.18;;;;;;;0.22;97.55;100496.88;5005934;28;20121;-61
2022/01/28 00:44:29;;;;;;;8.43;7.97;;;;;;;0.30;97.05;100499.81;5007299;28;20026;-61
2022/01/28 00:46:54;;;;;;;9.13;8.52;;;;;;;0.25;97.31;100492.31;5003346;28;20164;-62
2022/01/28 00:49:20;;;;;;;8.57;8.07;;;;;;;0.28;97.80;100489.47;5007491;28;20017;-62
2022/01/28 00:51:46;;;;;;;7.70;7.30;;;;;;;0.26;97.75;100491.34;5007248;28;20030;-60
2022/01/28 00:54:11;;;;;;;7.80;7.40;;;;;;;0.25;98.08;100487.09;5006291;28;20378;-61
2022/01/28 00:56:37;;;;;;;8.02;7.63;;;;;;;0.28;97.65;100483.41;5011306;28;20026;-61
2022/01/28 00:59:03;;;;;;;8.40;7.90;;;;;;;0.30;96.69;100478.09;5006674;28;20105;-62
2022/01/28 01:01:29;;;;;;;8.27;7.80;;;;;;;0.28;96.33;100472.97;5009022;28;20022;-60
2022/01/28 01:03:56;;;;;;;9.07;8.50;;;;;;;0.28;97.39;100473.81;5007599;28;20026;-61
2022/01/28 01:06:22;;;;;;;7.75;7.35;;;;;;;0.25;97.23;100468.81;5009120;28;20060;-61
2022/01/28 01:08:47;;;;;;;7.65;7.30;;;;;;;0.24;97.49;100466.34;5009353;28;20061;-61
2022/01/28 01:11:13;;;;;;;7.90;7.50;;;;;;;0.26;96.93;100459.22;5004613;28;20119;-62
2022/01/28 01:13:40;;;;;;;8.02;7.63;;;;;;;0.27;97.20;100466.94;5009872;28;20022;-62
2022/01/28 01:16:08;;;;;;;8.40;7.90;;;;;;;0.24;97.24;100454.13;5005882;28;20053;-62
2022/01/28 01:18:47;;;;;;;8.50;8.00;;;;;;;0.25;97.38;100461.00;5009625;28;20029;-61
2022/01/28 01:21:25;;;;;;;8.13;7.72;;;;;;;0.23;98.55;100455.06;5007032;28;20030;-61
2022/01/28 01:23:54;;;;;;;7.93;7.53;;;;;;;0.15;98.59;100456.56;5009686;28;20088;-61
2022/01/28 01:26:27;;;;;;;8.55;8.05;;;;;;;0.16;97.88;100459.06;5008545;28;20042;-62
2022/01/28 01:28:53;;;;;;;8.60;8.10;;;;;;;0.14;97.39;100447.03;5005579;28;20061;-61
2022/01/28 01:31:20;;;;;;;8.30;7.90;;;;;;;0.11;97.97;100453.31;5005528;28;20482;-61
2022/01/28 01:34:00;;;;;;;8.32;7.85;;;;;;;0.10;98.00;100456.88;5007684;28;20033;-61
2022/01/28 01:36:25;;;;;;;7.60;7.20;;;;;;;-0.01;98.62;100444.59;5007173;28;20386;-62
2022/01/28 01:38:51;;;;;;;9.07;8.50;;;;;;;0.08;97.92;100455.34;4988308;28;20041;-63
2022/01/28 01:41:32;;;;;;;8.10;7.70;;;;;;;0.09;98.02;100451.78;5008664;28;20863;-61
2022/01/28 01:44:05;;;;;;;8.65;8.15;;;;;;;0.14;97.49;100455.69;5005535;28;20489;-61
2022/01/28 01:47:10;;;;;;;8.57;8.07;;;;;;;0.17;97.55;100452.06;5007117;28;20042;-62
2022/01/28 01:52:12;;;;;;;8.80;8.30;;;;;;;0.20;96.37;100447.44;5006784;28;20033;-62
2022/01/28 01:54:40;;;;;;;8.05;7.65;;;;;;;0.26;96.69;100448.78;5004844;28;20578;-62
2022/01/28 01:57:08;;;;;;;8.43;7.93;;;;;;;0.32;96.39;100445.72;5006373;28;20112;-61
2022/01/28 01:59:36;;;;;;;7.80;7.40;;;;;;;0.25;97.03;100440.13;5008345;28;20780;-61
2022/01/28 02:02:02;;;;;;;8.57;8.07;;;;;;;0.30;97.43;100441.59;5003506;28;20390;-61
2022/01/28 02:04:28;;;;;;;7.95;7.55;;;;;;;0.33;96.36;100434.34;5009140;28;20504;-61
2022/01/28 02:06:55;;;;;;;7.95;7.55;;;;;;;0.32;97.21;100440.53;5000631;28;20034;-61
2022/01/28 02:09:21;;;;;;;8.70;8.20;;;;;;;0.34;96.80;100437.78;5009615;28;20041;-61
2022/01/28 02:11:47;;;;;;;7.93;7.53;;;;;;;0.28;97.49;100444.28;5007501;28;20034;-61
2022/01/28 02:14:12;;;;;;;7.53;7.13;;;;;;;0.24;98.11;100440.25;5005787;28;21336;-61
2022/01/28 02:16:38;;;;;;;7.95;7.55;;;;;;;0.23;98.40;100444.63;5008294;28;20549;-62
2022/01/28 02:19:04;;;;;;;8.30;7.88;;;;;;;0.22;98.88;100442.09;5007419;28;20034;-62
2022/01/28 02:21:48;;;;;;;8.32;7.90;;;;;;;0.19;98.61;100443.16;5007647;28;20381;-61
2022/01/28 02:24:17;;;;;;;7.93;7.53;;;;;;;0.17;99.12;100441.63;5005169;28;20038;-62
2022/01/28 02:26:43;;;;;;;7.70;7.30;;;;;;;0.16;99.57;100440.78;5003007;28;20029;-63
2022/01/28 02:29:13;;;;;;;8.32;7.85;;;;;;;0.18;98.85;100440.69;5007328;28;20057;-62
2022/01/28 02:31:39;;;;;;;8.25;7.85;;;;;;;0.11;99.37;100442.91;5009702;28;20018;-61
2022/01/28 02:34:06;;;;;;;8.90;8.40;;;;;;;0.12;99.39;100441.13;5001769;28;20022;-61
2022/01/28 02:36:32;;;;;;;8.38;7.97;;;;;;;0.21;99.34;100454.31;4993005;28;20038;-61
2022/01/28 02:38:59;;;;;;;8.25;7.85;;;;;;;0.25;98.93;100454.94;5011294;28;20040;-61
2022/01/28 02:41:28;;;;;;;7.88;7.47;;;;;;;0.25;98.83;100439.28;5013951;28;20038;-61
2022/01/28 02:46:28;;;;;;;8.70;8.20;;;;;;;0.10;99.86;100446.44;5014880;28;20124;-62
2022/01/28 02:49:04;;;;;;;8.07;7.68;;;;;;;0.02;100.00;100433.13;5013679;28;20026;-61
2022/01/28 02:51:30;;;;;;;8.80;8.30;;;;;;;-0.03;100.00;100430.00;4997083;28;20029;-62
2022/01/28 02:53:58;;;;;;;8.30;7.90;;;;;;;-0.11;100.00;100434.94;5014900;28;20076;-61
2022/01/28 02:56:36;;;;;;;8.60;8.15;;;;;;;-0.03;100.00;100430.00;5013958;28;20041;-61
2022/01/28 02:59:03;;;;;;;8.75;8.25;;;;;;;-0.16;100.00;100424.81;5013956;28;20034;-62
2022/01/28 03:01:28;;;;;;;7.90;7.50;;;;;;;-0.20;100.00;100428.59;5013490;28;20030;-61
2022/01/28 03:03:56;;;;;;;8.88;8.38;;;;;;;-0.14;100.00;100430.78;5008338;28;20552;-61
2022/01/28 03:06:22;;;;;;;8.75;8.25;;;;;;;-0.17;100.00;100424.94;5026718;28;20477;-60
2022/01/28 03:09:05;;;;;;;8.52;8.02;;;;;;;-0.18;100.00;100433.69;5011041;28;20038;-61
2022/01/28 03:17:49;;;;;;;9.65;9.05;;;;;;;-0.46;100.00;100417.38;5010700;28;20092;-60
2022/01/28 03:19:40;;;;;;;8.85;8.35;;;;;;;-0.54;100.00;100421.47;4997136;28;20041;-60
2022/01/28 03:22:06;;;;;;;8.30;7.90;;;;;;;-0.61;100.00;100413.22;5012394;28;20097;-60
2022/01/28 03:24:33;;;;;;;8.52;8.07;;;;;;;-0.49;100.00;100414.16;5011682;28;20120;-61
2022/01/28 03:27:05;;;;;;;8.10;7.70;;;;;;;-0.46;100.00;100413.94;5012025;28;20030;-62
2022/01/28 03:29:30;;;;;;;8.65;8.15;;;;;;;-0.50;100.00;100421.16;5010135;28;20523;-62
2022/01/28 03:31:56;;;;;;;8.70;8.20;;;;;;;-0.43;100.00;100422.41;5010781;28;20022;-63
2022/01/28 03:34:21;;;;;;;8.20;7.80;;;;;;;-0.42;100.00;100418.00;5010595;28;20400;-62
2022/01/28 03:36:48;;;;;;;8.88;8.38;;;;;;;-0.40;100.00;100416.97;5007753;28;20531;-61
2022/01/28 03:39:13;;;;;;;8.25;7.85;;;;;;;-0.44;100.00;100412.91;5006430;28;20025;-61
2022/01/28 03:41:39;;;;;;;8.73;8.23;;;;;;;-0.42;100.00;100412.81;5008942;28;20060;-62
2022/01/28 03:44:06;;;;;;;8.00;7.60;;;;;;;-0.48;100.00;100406.25;5011390;28;20038;-61
2022/01/28 03:46:31;;;;;;;8.20;7.80;;;;;;;-0.47;100.00;100410.50;5007565;28;20033;-61
2022/01/28 03:48:57;;;;;;;8.00;7.60;;;;;;;-0.40;100.00;100422.16;5009917;28;20028;-60
2022/01/28 03:51:23;;;;;;;9.07;8.57;;;;;;;-0.43;100.00;100417.19;5006344;28;20389;-62
2022/01/28 03:53:49;;;;;;;8.10;7.70;;;;;;;-0.33;100.00;100420.81;5010429;28;20038;-61
2022/01/28 03:56:17;;;;;;;8.07;7.68;;;;;;;-0.30;100.00;100427.56;5010475;28;20045;-62
2022/01/28 03:58:44;;;;;;;9.30;8.75;;;;;;;-0.35;100.00;100425.28;5007980;28;20032;-62
2022/01/28 04:01:16;;;;;;;8.07;7.68;;;;;;;-0.38;100.00;100422.88;5011644;28;20030;-62
2022/01/28 04:11:51;;;;;;;8.50;8.00;;;;;;;-0.16;100.00;100430.03;5007864;28;20147;-62
2022/01/28 04:19:33;;;;;;;7.82;7.43;;;;;;;-0.22;100.00;100414.00;5008932;28;20543;-62
2022/01/28 04:21:59;;;;;;;7.65;7.25;;;;;;;-0.12;100.00;100418.47;5007817;28;20038;-60
2022/01/28 04:24:25;;;;;;;8.27;7.85;;;;;;;-0.13;100.00;100424.63;5022118;28;20034;-61
2022/01/28 04:26:50;;;;;;;8.55;8.05;;;;;;;-0.15;100.00;100423.03;4990859;28;20052;-62
2022/01/28 04:29:16;;;;;;;8.20;7.80;;;;;;;-0.09;100.00;100418.22;5008823;28;20088;-62
2022/01/28 04:31:45;;;;;;;8.60;8.10;;;;;;;-0.08;100.00;100426.88;5004862;28;20050;-61
2022/01/28 04:34:11;;;;;;;7.65;7.25;;;;;;;-0.07;100.00;100428.56;5006218;28;20045;-62
2022/01/28 04:36:46;;;;;;;7.80;7.40;;;;;;;-0.08;100.00;100438.13;5009569;28;20492;-61
2022/01/28 04:39:28;;;;;;;8.23;7.75;;;;;;;-0.06;100.00;100432.84;5009001;28;20034;-62
2022/01/28 04:44:27;;;;;;;8.38;7.93;;;;;;;-0.05;100.00;100432.72;5009480;28;20033;-61
2022/01/28 04:47:06;;;;;;;8.93;8.43;;;;;;;0.00;100.00;100437.63;5005743;28;20034;-62
2022/01/28 04:49:51;;;;;;;7.97;7.57;;;;;;;0.00;100.00;100437.63;5001802;28;20041;-61
2022/01/28 05:00:30;;;;;;;8.43;7.93;;;;;;;0.17;100.00;100428.59;4993376;28;20151;-61
2022/01/28 05:28:48;;;;;;;10.43;9.65;;;;;;;0.41;100.00;100439.00;5004397;28;20541;-61
2022/01/28 05:31:16;;;;;;;9.35;8.75;;;;;;;0.46;100.00;100439.53;5004090;28;20042;-62
2022/01/28 05:33:41;;;;;;;9.23;8.63;;;;;;;0.46;100.00;100439.53;5005248;28;20045;-63
2022/01/28 05:36:07;;;;;;;8.77;8.27;;;;;;;0.48;100.00;100433.22;5004312;28;20069;-62
2022/01/28 05:38:32;;;;;;;9.18;8.57;;;;;;;0.53;100.00;100440.72;5006566;28;20026;-62
2022/01/28 05:40:58;;;;;;;9.90;9.20;;;;;;;0.55;100.00;100438.84;5004769;28;20033;-62
2022/01/28 05:43:34;;;;;;;9.35;8.75;;;;;;;0.61;99.63;100441.00;5006186;28;20036;-63
2022/01/28 05:45:59;;;;;;;9.70;9.05;;;;;;;0.58;100.00;100424.72;5004227;28;20393;-62
2022/01/28 05:48:25;;;;;;;9.63;9.02;;;;;;;0.69;100.00;100430.81;5004123;28;20937;-62
2022/01/28 05:50:50;;;;;;;9.75;9.10;;;;;;;0.61;98.41;100427.94;5004342;28;20027;-62
2022/01/28 05:53:16;;;;;;;8.85;8.35;;;;;;;0.66;100.00;100430.19;5008306;28;20030;-62
2022/01/28 05:55:41;;;;;;;9.95;9.25;;;;;;;0.70;99.19;100439.47;5005846;28;20033;-62
2022/01/28 05:58:07;;;;;;;9.55;8.95;;;;;;;0.69;99.24;100436.03;5003872;28;20038;-62
2022/01/28 06:00:33;;;;;;;9.38;8.77;;;;;;;0.72;98.94;100438.41;5003074;28;20022;-61
2022/01/28 06:02:58;;;;;;;8.95;8.38;;;;;;;0.78;99.94;100434.53;5007206;28;20100;-62
2022/01/28 06:05:30;;;;;;;8.45;7.95;;;;;;;0.81;98.75;100436.94;4999160;28;20025;-64
2022/01/28 06:07:59;;;;;;;9.10;8.52;;;;;;;0.86;98.98;100444.41;5000566;28;20397;-66
2022/01/28 06:10:25;;;;;;;10.52;9.75;;;;;;;0.87;98.52;100443.44;4998896;28;20026;-65
2022/01/28 06:12:50;;;;;;;9.15;8.55;;;;;;;0.90;98.96;100445.84;4999409;28;20022;-66
2022/01/28 06:15:16;;;;;;;8.00;7.60;;;;;;;0.88;98.56;100450.31;5011119;28;20393;-66
2022/01/28 06:17:42;;;;;;;7.80;7.40;;;;;;;0.99;99.34;100464.25;5010582;28;20394;-65
2022/01/28 06:20:10;;;;;;;8.15;7.75;;;;;;;0.99;99.04;100461.66;4995148;28;20040;-66
2022/01/28 06:22:43;;;;;;;8.50;8.02;;;;;;;1.07;98.09;100455.84;5007148;28;20366;-64
2022/01/28 06:25:10;;;;;;;8.25;7.85;;;;;;;1.18;98.47;100461.13;5012356;28;20521;-65
2022/01/28 06:27:36;;;;;;;8.27;7.88;;;;;;;1.18;97.29;100458.50;5005213;28;20566;-66
2022/01/28 06:30:05;;;;;;;9.52;8.93;;;;;;;1.19;97.30;100449.72;5010799;28;20033;-65
2022/01/28 06:32:32;;;;;;;8.07;7.68;;;;;;;1.30;97.00;100448.88;4994242;28;20063;-65
2022/01/28 06:35:05;;;;;;;8.27;7.88;;;;;;;1.24;97.25;100444.94;5008678;28;20116;-65
2022/01/28 06:37:31;;;;;;;8.32;7.82;;;;;;;1.10;97.01;100401.59;5011640;28;20025;-65
2022/01/28 06:39:56;;;;;;;8.63;8.13;;;;;;;1.35;96.59;100426.69;5011034;28;20045;-65
2022/01/28 06:42:22;;;;;;;8.63;8.13;;;;;;;1.40;96.65;100423.72;5010524;28;20030;-65
2022/01/28 06:44:47;;;;;;;9.35;8.75;;;;;;;1.47;94.29;100413.59;4994389;28;20050;-66
2022/01/28 06:47:12;;;;;;;8.10;7.70;;;;;;;1.45;94.29;100411.09;5007516;28;20440;-64
2022/01/28 06:49:38;;;;;;;8.13;7.72;;;;;;;1.62;94.76;100404.59;5010116;28;20492;-65
2022/01/28 06:52:05;;;;;;;8.25;7.82;;;;;;;1.96;93.93;100407.97;5008045;28;20022;-65
2022/01/28 06:54:31;;;;;;;8.32;7.82;;;;;;;2.08;92.14;100396.53;5009493;28;20037;-65
2022/01/28 06:56:56;;;;;;;8.85;8.35;;;;;;;2.34;91.27;100381.31;5004346;28;20030;-65
2022/01/28 06:59:22;;;;;;;8.02;7.63;;;;;;;2.44;90.89;100381.41;5009301;28;20034;-65
2022/01/28 07:01:47;;;;;;;8.88;8.38;;;;;;;2.51;92.28;100377.31;5008114;28;20029;-65
2022/01/28 07:04:14;;;;;;;7.97;7.57;;;;;;;2.53;92.06;100385.03;5011172;28;20032;-65
2022/01/28 07:06:39;;;;;;;7.82;7.43;;;;;;;2.53;92.25;100371.97;4992321;28;20036;-66
2022/01/28 07:09:06;;;;;;;8.10;7.70;;;;;;;2.63;90.72;100371.06;5009435;28;20393;-65
2022/01/28 07:11:32;;;;;;;8.85;8.35;;;;;;;2.42;91.92;100376.31;5007847;28;20036;-66
2022/01/28 07:13:57;;;;;;;8.68;8.18;;;;;;;2.14;94.03;100372.47;5007279;28;20481;-65
2022/01/28 07:16:23;;;;;;;9.02;8.52;;;;;;;2.16;95.68;100377.59;5010650;28;20107;-66
2022/01/28 07:18:48;;;;;;;8.52;8.05;;;;;;;2.10;97.99;100385.94;5005678;28;20041;-65
2022/01/28 07:21:14;;;;;;;9.05;8.55;;;;;;;1.97;99.04;100369.53;4994158;28;20044;-66
2022/01/28 07:23:39;;;;;;;8.38;7.97;;;;;;;1.76;100.00;100379.94;5003137;28;20033;-65
2022/01/28 07:26:05;;;;;;;9.52;8.93;;;;;;;1.15;100.00;100379.50;5007392;28;20033;-67
2022/01/28 07:28:31;;;;;;;10.57;9.85;;;;;;;0.86;100.00;100364.28;5010478;28;20054;-67
2022/01/28 07:30:57;;;;;;;8.63;8.18;;;;;;;0.65;100.00;100365.88;4987969;28;20083;-66
2022/01/28 07:33:23;;;;;;;9.00;8.50;;;;;;;1.28;100.00;100364.53;4989709;28;20026;-67
2022/01/28 07:35:48;;;;;;;9.13;8.63;;;;;;;1.12;100.00;100362.28;4984069;28;20034;-68
2022/01/28 07:38:14;;;;;;;9.38;8.88;;;;;;;1.28;100.00;100360.16;4986029;28;20076;-66
2022/01/28 07:40:39;;;;;;;10.32;9.63;;;;;;;1.10;100.00;100364.16;4985991;28;20132;-67
2022/01/28 07:43:05;;;;;;;8.35;7.95;;;;;;;0.48;100.00;100374.97;5002188;28;20042;-67
2022/01/28 07:45:30;;;;;;;9.75;9.15;;;;;;;0.65;100.00;100368.50;4987021;28;20132;-66
2022/01/28 07:47:56;;;;;;;9.00;8.50;;;;;;;0.86;100.00;100381.72;4985804;28;20414;-66
2022/01/28 07:50:21;;;;;;;9.45;8.88;;;;;;;0.42;100.00;100385.88;4985511;28;20060;-66
2022/01/28 07:52:47;;;;;;;9.25;8.75;;;;;;;0.46;100.00;100395.16;4984801;28;21146;-67
2022/01/28 07:55:14;;;;;;;8.98;8.48;;;;;;;0.65;100.00;100392.00;4986761;28;20033;-65
2022/01/28 07:57:41;;;;;;;9.27;8.77;;;;;;;0.49;100.00;100379.25;4985073;28;20051;-66
2022/01/28 08:00:08;;;;;;;9.57;8.98;;;;;;;1.02;100.00;100387.44;4981538;28;20038;-68
2022/01/28 08:02:35;;;;;;;9.07;8.57;;;;;;;0.62;100.00;100377.41;4983249;28;20052;-67
2022/01/28 08:05:00;;;;;;;9.13;8.60;;;;;;;1.56;100.00;100373.69;4985613;28;20037;-67
2022/01/28 08:07:26;;;;;;;9.68;9.07;;;;;;;2.19;100.00;100386.00;4988339;28;20026;-67
2022/01/28 08:09:52;;;;;;;8.80;8.30;;;;;;;1.97;100.00;100382.63;4982649;28;20365;-67
2022/01/28 08:12:17;;;;;;;8.95;8.45;;;;;;;1.73;100.00;100377.56;4991736;28;20132;-65
2022/01/28 08:14:43;;;;;;;9.00;8.50;;;;;;;1.44;100.00;100377.25;4986452;28;20022;-67
2022/01/28 08:17:08;;;;;;;8.35;7.95;;;;;;;1.75;100.00;100371.25;4987594;28;20041;-65
2022/01/28 08:19:34;;;;;;;8.55;8.05;;;;;;;1.82;100.00;100375.06;4987574;28;20030;-64
2022/01/28 08:22:00;;;;;;;8.38;7.97;;;;;;;1.91;99.49;100371.72;4990118;28;20092;-66
2022/01/28 08:24:26;;;;;;;8.85;8.35;;;;;;;1.55;99.66;100375.47;4983450;28;20073;-66
2022/01/28 08:26:51;;;;;;;9.25;8.75;;;;;;;1.55;100.00;100383.31;4981915;28;20105;-67
2022/01/28 08:29:17;;;;;;;8.90;8.40;;;;;;;1.86;100.00;100379.09;4998965;28;20052;-66
2022/01/28 08:31:43;;;;;;;8.40;8.00;;;;;;;1.49;100.00;100356.81;5007149;28;20037;-66
2022/01/28 08:34:09;;;;;;;8.57;8.10;;;;;;;2.09;99.44;100365.94;4992164;28;20496;-65
2022/01/28 08:36:34;;;;;;;8.52;8.02;;;;;;;2.34;98.38;100367.38;5005741;28;20053;-66
2022/01/28 08:39:00;;;;;;;8.73;8.23;;;;;;;2.36;97.58;100376.81;5006901;28;20531;-65
2022/01/28 08:41:26;;;;;;;8.07;7.68;;;;;;;2.29;97.74;100382.66;5005288;28;20113;-66
2022/01/28 08:43:52;;;;;;;9.23;8.70;;;;;;;2.20;97.04;100372.00;4991641;28;20030;-67
2022/01/28 08:46:17;;;;;;;8.18;7.78;;;;;;;2.32;97.85;100380.59;5004851;28;20509;-68
2022/01/28 08:48:43;;;;;;;9.25;8.68;;;;;;;2.61;96.98;100378.22;5008240;28;20499;-67
2022/01/28 08:51:09;;;;;;;8.50;8.00;;;;;;;2.89;95.88;100375.91;5008928;28;20045;-68
2022/01/28 08:53:36;;;;;;;8.80;8.30;;;;;;;3.03;93.99;100386.06;5003012;28;20030;-67
2022/01/28 08:56:02;;;;;;;9.48;8.88;;;;;;;8.07;74.12;100387.22;5001464;28;20419;-67
2022/01/28 08:58:28;;;;;;;7.95;7.55;;;;;;;10.34;63.09;100395.69;5001642;28;20030;-67
2022/01/28 09:00:53;;;;;;;7.15;6.82;;;;;;;11.74;55.32;100391.53;5005311;28;20026;-67
2022/01/28 09:03:20;;;;;;;7.20;6.90;;;;;;;11.96;52.88;100398.56;5010496;28;20030;-68
2022/01/28 09:05:47;;;;;;;7.35;7.05;;;;;;;12.44;52.81;100396.22;5004892;28;20042;-67
2022/01/28 09:08:13;;;;;;;7.82;7.43;;;;;;;13.93;45.61;100396.84;5005906;28;20045;-68
2022/01/28 09:10:45;;;;;;;7.65;7.35;;;;;;;14.77;43.03;100399.94;5023705;28;20030;-67
2022/01/28 09:13:22;;;;;;;7.57;7.28;;;;;;;14.44;42.09;100404.38;5006764;28;20022;-66
2022/01/28 09:15:49;;;;;;;8.30;7.90;;;;;;;14.86;41.32;100398.69;5006740;28;20029;-67
2022/01/28 09:18:16;;;;;;;7.90;7.60;;;;;;;16.44;39.07;100407.25;4991039;28;20396;-68
2022/01/28 09:20:42;;;;;;;8.50;8.10;;;;;;;16.39;37.56;100398.22;5003647;28;20032;-67
2022/01/28 09:23:09;;;;;;;8.05;7.70;;;;;;;15.87;38.42;100392.13;5008064;28;20033;-66
2022/01/28 09:25:35;;;;;;;9.00;8.60;;;;;;;15.98;38.00;100394.94;5005514;28;20094;-66
2022/01/28 09:28:01;;;;;;;8.45;8.05;;;;;;;15.48;37.08;100397.34;5007386;28;20050;-67
2022/01/28 09:30:26;;;;;;;8.90;8.50;;;;;;;16.47;36.87;100406.00;5005372;28;20026;-67
2022/01/28 09:32:53;;;;;;;8.85;8.45;;;;;;;16.42;36.34;100395.94;4992036;28;20429;-66
2022/01/28 09:35:19;;;;;;;8.23;7.82;;;;;;;15.69;36.44;100390.13;5004080;28;20038;-67
2022/01/28 09:37:45;;;;;;;9.32;8.88;;;;;;;15.45;37.86;100389.75;5001008;28;20033;-67
2022/01/28 09:40:12;;;;;;;8.93;8.52;;;;;;;15.22;37.87;100378.72;4988131;28;20032;-66
2022/01/28 09:42:41;;;;;;;8.70;8.30;;;;;;;12.54;44.98;100383.41;5005447;28;20041;-66
2022/01/28 09:45:09;;;;;;;10.75;10.15;;;;;;;11.10;48.54;100360.25;5004712;28;20044;-67
2022/01/28 09:47:36;;;;;;;9.70;9.20;;;;;;;10.56;50.04;100363.03;5023743;28;20040;-66
2022/01/28 09:50:05;;;;;;;9.40;8.90;;;;;;;11.06;50.04;100362.41;5004091;28;20037;-66
2022/01/28 09:52:31;;;;;;;9.57;9.07;;;;;;;10.66;50.66;100358.34;4999115;28;20038;-66
2022/01/28 09:54:57;;;;;;;10.05;9.52;;;;;;;9.46;52.16;100348.28;5001963;28;20027;-66
2022/01/28 09:57:22;;;;;;;9.63;9.13;;;;;;;9.28;51.60;100352.00;5004109;28;20097;-66
2022/01/28 09:59:48;;;;;;;10.73;10.13;;;;;;;9.77;49.31;100349.16;5025511;28;20033;-66
2022/01/28 10:02:14;;;;;;;9.63;9.13;;;;;;;9.53;50.73;100363.31;4999745;28;20365;-66
2022/01/28 10:04:39;;;;;;;10.25;9.65;;;;;;;9.35;51.33;100349.50;5019624;28;20046;-65
2022/01/28 10:07:14;;;;;;;10.32;9.73;;;;;;;8.68;52.21;100341.88;4996192;28;20034;-66
2022/01/28 10:10:00;;;;;;;;;;;;;;;8.54;54.19;100346.03;5015990;28;20025;-67
2022/01/28 10:12:40;;;;;;;11.13;10.43;;;;;;;8.24;54.40;100342.19;5004770;28;19920;-66
2022/01/28 10:15:17;;;;;;;10.55;9.95;;;;;;;7.74;55.95;100335.16;5003067;28;20037;-67
2022/01/28 10:18:00;;;;;;;10.63;10.02;;;;;;;7.14;57.34;100321.25;5004973;28;20044;-69
2022/01/28 10:20:28;;;;;;;9.73;9.23;;;;;;;6.90;58.13;100316.63;5007727;28;20108;-66
2022/01/28 10:22:59;;;;;;;10.57;9.98;;;;;;;7.04;57.49;100321.34;5008271;28;20030;-65
2022/01/28 10:25:28;;;;;;;9.25;8.77;;;;;;;6.84;59.25;100317.28;5010421;28;20026;-67
2022/01/28 10:28:12;;;;;;;10.40;9.80;;;;;;;6.55;61.71;100297.31;5004830;28;20516;-66
2022/01/28 10:30:42;;;;;;;10.60;9.90;;;;;;;6.82;60.79;100327.13;4999758;28;20044;-67
2022/01/28 10:33:12;;;;;;;10.75;10.05;;;;;;;6.84;60.88;100319.91;5005641;28;20584;-67
2022/01/28 10:35:38;;;;;;;11.45;10.65;;;;;;;6.59;60.47;100308.38;5003270;28;20045;-67
2022/01/28 10:38:07;;;;;;;9.77;9.23;;;;;;;6.54;61.98;100310.66;5016220;28;20080;-66
2022/01/28 10:40:32;;;;;;;10.43;9.73;;;;;;;6.67;61.05;100308.44;5004226;28;20029;-67
2022/01/28 10:42:58;;;;;;;9.38;8.88;;;;;;;6.26;63.56;100307.31;5007238;28;20084;-69
2022/01/28 10:45:29;;;;;;;9.88;9.27;;;;;;;6.48;62.66;100311.28;5008132;28;20469;-66
2022/01/28 10:47:56;;;;;;;9.18;8.68;;;;;;;6.49;61.27;100305.03;5022573;28;20108;-66
2022/01/28 10:50:23;;;;;;;9.95;9.35;;;;;;;6.65;62.04;100305.94;5008099;28;20401;-66
2022/01/28 10:53:06;;;;;;;9.68;9.13;;;;;;;6.84;61.98;100296.19;5004315;28;20038;-66
2022/01/28 10:55:35;;;;;;;9.18;8.68;;;;;;;6.96;61.14;100299.38;4999168;28;20030;-65
2022/01/28 10:58:11;;;;;;;9.70;9.10;;;;;;;7.17;60.82;100310.34;5003690;28;20034;-66
2022/01/28 11:00:42;;;;;;;9.43;8.88;;;;;;;7.26;60.23;100313.84;5007414;28;20049;-66
2022/01/28 11:03:10;;;;;;;8.98;8.48;;;;;;;7.31;60.42;100308.94;5017762;28;20057;-65
2022/01/28 11:05:37;;;;;;;9.93;9.32;;;;;;;7.45;59.84;100314.44;5011774;28;20037;-64
2022/01/28 11:08:05;;;;;;;9.77;9.18;;;;;;;7.78;59.79;100317.16;5006343;28;20033;-64
2022/01/28 11:10:31;;;;;;;9.68;9.07;;;;;;;8.06;59.37;100308.97;5012962;28;20040;-64
2022/01/28 11:12:59;;;;;;;9.07;8.57;;;;;;;7.94;57.27;100309.28;4996269;28;20037;-64
2022/01/28 11:15:25;;;;;;;8.98;8.48;;;;;;;7.96;57.16;100306.47;5007711;28;20030;-64
2022/01/28 11:17:52;;;;;;;9.30;8.80;;;;;;;7.95;56.55;100305.66;5008755;28;20454;-64
2022/01/28 11:20:21;;;;;;;10.40;9.80;;;;;;;8.34;56.81;100310.28;5009556;28;20484;-64
2022/01/28 11:23:14;;;;;;;9.20;8.70;;;;;;;8.31;56.72;100311.47;5008352;28;20660;-65
2022/01/28 11:26:15;;;;;;;9.27;8.77;;;;;;;8.03;56.24;100307.47;5010028;28;20460;-63
2022/01/28 11:28:56;;;;;;;9.32;8.82;;;;;;;8.07;55.78;100300.88;5004302;28;20054;-66
2022/01/28 11:31:48;;;;;;;10.15;9.55;;;;;;;8.02;54.39;100303.19;5011456;28;20124;-68
2022/01/28 11:34:26;;;;;;;8.63;8.23;;;;;;;7.86;53.75;100305.78;5003445;28;20173;-68
2022/01/28 11:37:18;;;;;;;8.70;8.30;;;;;;;7.92;52.95;100291.94;5002894;28;20034;-69
2022/01/28 11:39:47;;;;;;;9.07;8.57;;;;;;;7.99;52.27;100293.75;5014116;28;20030;-67
2022/01/28 11:42:15;;;;;;;9.27;8.77;;;;;;;8.41;52.29;100290.19;5009334;28;20026;-67
2022/01/28 11:44:44;;;;;;;9.95;9.35;;;;;;;8.48;51.36;100290.34;5013310;28;20507;-66
2022/01/28 11:47:12;;;;;;;9.32;8.82;;;;;;;8.94;50.88;100283.47;5012329;28;20031;-67
2022/01/28 11:50:07;;;;;;;9.02;8.52;;;;;;;8.95;50.31;100290.41;5015459;28;20041;-67
2022/01/28 11:52:50;;;;;;;8.63;8.23;;;;;;;9.20;49.92;100280.56;5017478;28;20049;-68
2022/01/28 11:55:21;;;;;;;8.88;8.43;;;;;;;8.64;50.29;100284.19;5006709;28;20165;-68
2022/01/28 11:58:08;;;;;;;10.40;9.80;;;;;;;8.73;49.59;100268.13;5016162;28;20061;-67
2022/01/28 12:00:35;;;;;;;9.68;9.18;;;;;;;8.36;49.45;100223.75;5011591;28;20041;-67
2022/01/28 12:03:13;;;;;;;10.82;10.13;;;;;;;8.65;50.03;100276.09;5010683;28;20036;-67
2022/01/28 12:05:39;;;;;;;11.02;10.32;;;;;;;8.00;50.63;100269.00;5011624;28;20504;-68
2022/01/28 12:08:05;;;;;;;9.70;9.20;;;;;;;7.58;50.85;100271.75;5023605;28;20045;-71
2022/01/28 12:10:39;;;;;;;9.32;8.82;;;;;;;7.73;50.79;100264.03;5013626;28;20033;-67
2022/01/28 12:13:07;;;;;;;9.50;8.98;;;;;;;7.60;50.76;100266.31;5012322;28;20026;-68
2022/01/28 12:16:00;;;;;;;9.23;8.73;;;;;;;7.66;51.07;100266.50;5008594;28;20038;-68
2022/01/28 12:18:53;;;;;;;10.32;9.73;;;;;;;7.69;51.82;100268.78;5010873;28;20061;-68
2022/01/28 12:21:29;;;;;;;10.25;9.65;;;;;;;7.61;50.92;100263.50;5012542;28;20081;-68
2022/01/28 12:24:20;;;;;;;9.80;9.25;;;;;;;7.47;52.62;100266.75;5013325;28;20029;-68
2022/01/28 12:27:04;;;;;;;9.30;8.80;;;;;;;7.34;53.01;100274.31;5017032;28;20026;-68
2022/01/28 12:29:34;;;;;;;9.27;8.77;;;;;;;7.55;53.69;100269.41;4996614;28;20137;-68
2022/01/28 12:32:00;;;;;;;9.27;8.77;;;;;;;7.22;54.44;100273.78;5012283;28;20100;-66
2022/01/28 12:34:27;;;;;;;9.90;9.32;;;;;;;7.00;56.75;100288.38;5002351;28;20050;-67
2022/01/28 12:36:53;;;;;;;8.90;8.45;;;;;;;6.70;58.72;100291.50;5011688;28;20860;-70
2022/01/28 12:39:32;;;;;;;8.95;8.50;;;;;;;6.35;61.18;100282.69;5011623;28;20125;-67
2022/01/28 12:42:08;;;;;;;10.00;9.40;;;;;;;6.26;62.75;100286.25;5013220;28;20156;-69
2022/01/28 12:44:35;;;;;;;9.82;9.27;;;;;;;6.20;63.38;100279.78;5006321;28;20032;-68
2022/01/28 12:47:10;;;;;;;9.65;9.15;;;;;;;5.90;65.83;100274.88;5002476;28;20065;-69
2022/01/28 12:49:36;;;;;;;10.20;9.60;;;;;;;6.17;65.99;100284.50;4999837;28;20054;-68
2022/01/28 12:52:05;;;;;;;10.10;9.50;;;;;;;6.16;66.49;100294.22;5012209;28;20029;-67
2022/01/28 12:54:36;;;;;;;10.07;9.48;;;;;;;5.85;67.72;100290.28;5012944;28;20463;-68
2022/01/28 12:57:02;;;;;;;10.07;9.48;;;;;;;5.74;68.92;100283.44;5011199;28;20169;-68
2022/01/28 12:59:27;;;;;;;10.48;9.85;;;;;;;5.64;70.52;100280.84;5015720;28;20404;-68
2022/01/28 13:01:54;;;;;;;11.15;10.45;;;;;;;5.93;69.94;100256.16;5010991;28;20033;-67